Saint Clairsville, OH (43950)

11:58 PM EDT on April 28, 2017 (GMT -0400)
Warnock | | Change Station

Elev 1106 ft 40.05 °N, 80.93 °W | Updated 1 second ago

Thunderstorm
Thunderstorm
56.5 °F
Feels Like 56.5 °F
N
3.0
Wind Variable Wind from SSE
Gusts 9.0 mph

Today
High -- | Low -- °F
--% Chance of Precip.
Yesterday
High -- | Low -- °F
Precip. -- in
Pressure 30.06 in
Visibility 6.0 miles
Clouds Few 7500 ft
Mostly Cloudy 9500 ft
Overcast 11000 ft
Dew Point 52 °F
Humidity 86%
Rainfall 0.15 in
Snow Depth Not available.
6:26 AM 8:15 PM
Waxing Crescent, 10% visible
METAR KHLG 290353Z AUTO 06007KT 6SM -TSRA FEW075 BKN095 OVC110 13/10 A3006 RMK AO2 LTG DSNT ALQDS TSE0254B51 PRESRR SLP180 P0009 T01330100
Pressure 30.06 in
Visibility 6.0 miles
Clouds Few 7500 ft
Mostly Cloudy 9500 ft
Overcast 11000 ft
Dew Point 52 °F
Humidity 86%
Rainfall 0.15 in
Snow Depth Not available.
6:26 AM 8:15 PM
Waxing Crescent, 10% visible
METAR KHLG 290353Z AUTO 06007KT 6SM -TSRA FEW075 BKN095 OVC110 13/10 A3006 RMK AO2 LTG DSNT ALQDS TSE0254B51 PRESRR SLP180 P0009 T01330100

Get Severe Weather Alerts

Thanks for signing up!

Be on the lookout for a verification email in your inbox.

You'll start receiving the daily forecast at 8 AM.

×

10-Day Weather Forecast

Almanac

Astronomy

Apr. 28, 2017 Rise Set
Actual Time
Civil Twilight
Nautical Twilight
Astronomical Twilight
Moon
Length of Visible Light
Length of Day
Tomorrow will be .
, % of the Moon is Illuminated

Today's Extremes

State Highs State Lows

Community

WunderPhotos

WunderBlog® & News

Nearby

Air Quality

  Air Quality AQ Index Pollutant
Not available.

Snow Depth

Station Depth Elevation

Earthquake Activity

City Distance Mag. Time & Date
Minimum magnitude displayed is 2.5.

Coastal Water Temperatures

Place Temperature

Stations

Nearby Weather Stations

Station Location Temp. Windchill Dew Point Humidity Wind Precip. Elev Updated Type
                   

Watches & Warnings

There are currently no watches in effect.